createdAt,value
2019-03-13T00:00:15.558Z,1.05
2019-03-13T00:02:47.760Z,0.90
2019-03-13T00:05:18.037Z,1.20
2019-03-13T00:07:48.538Z,1.27
2019-03-13T00:10:19.339Z,1.07
2019-03-13T00:12:49.803Z,1.30
2019-03-13T00:15:20.471Z,1.02
2019-03-13T00:17:51.409Z,0.80
2019-03-13T00:20:21.761Z,1.00
2019-03-13T00:22:52.149Z,0.95
2019-03-13T00:25:23.316Z,0.80
2019-03-13T00:27:53.741Z,0.60
2019-03-13T00:30:24.324Z,0.70
2019-03-13T00:32:54.694Z,0.78
2019-03-13T00:35:25.317Z,0.65
2019-03-13T00:37:55.456Z,0.50
2019-03-13T00:40:25.796Z,0.40
2019-03-13T00:42:56.221Z,0.40
2019-03-13T00:45:26.150Z,0.30
2019-03-13T00:47:56.639Z,0.50
2019-03-13T00:50:30.465Z,0.35
2019-03-13T00:53:00.343Z,0.45
2019-03-13T00:55:30.561Z,0.78
2019-03-13T00:58:02.530Z,0.30
2019-03-13T01:00:50.442Z,0.45
2019-03-13T01:03:39.530Z,0.20
2019-03-13T01:06:14.567Z,0.30
2019-03-13T01:13:44.829Z,0.10
2019-03-13T01:16:14.762Z,0.20
2019-03-13T01:18:44.540Z,0.20
2019-03-13T01:21:14.567Z,0.15
2019-03-13T01:26:15.326Z,0.10
2019-03-13T01:28:45.786Z,0.10
2019-03-13T01:31:41.995Z,0.30
2019-03-13T01:34:44.421Z,0.10
2019-03-13T01:37:15.638Z,0.25
2019-03-13T01:39:46.654Z,0.20
2019-03-13T01:42:16.992Z,0.20
2019-03-13T01:44:47.473Z,0.20
2019-03-13T01:47:17.916Z,0.30
2019-03-13T01:49:49.305Z,0.20
2019-03-13T01:52:20.324Z,0.20
2019-03-13T01:54:50.723Z,0.30
2019-03-13T01:59:51.542Z,0.30
2019-03-13T02:02:21.116Z,0.30
2019-03-13T02:07:20.673Z,0.40
2019-03-13T02:09:51.659Z,0.30
2019-03-13T02:12:22.898Z,0.50
2019-03-13T02:14:52.604Z,0.40
2019-03-13T02:22:21.566Z,0.55
2019-03-13T02:27:20.702Z,0.50
2019-03-13T02:29:50.662Z,0.53
2019-03-13T02:32:20.793Z,0.45
2019-03-13T02:34:50.830Z,0.30
2019-03-13T02:37:20.645Z,0.40
2019-03-13T02:39:51.329Z,0.50
2019-03-13T02:42:22.760Z,0.47
2019-03-13T02:44:52.923Z,0.60
2019-03-13T02:47:23.525Z,0.40
2019-03-13T02:49:53.593Z,0.40
2019-03-13T02:54:53.439Z,0.60
2019-03-13T02:57:24.101Z,0.70
2019-03-13T02:59:56.132Z,1.15
2019-03-13T03:02:51.634Z,2.37
2019-03-13T03:07:51.556Z,0.88
2019-03-13T03:10:23.257Z,1.85
2019-03-13T03:12:54.159Z,0.70
2019-03-13T03:15:24.936Z,0.60
2019-03-13T03:17:56.329Z,0.60
2019-03-13T03:20:27.470Z,0.70
2019-03-13T03:22:57.535Z,0.40
2019-03-13T03:25:28.383Z,0.55
2019-03-13T03:27:59.633Z,0.68
2019-03-13T03:30:30.326Z,0.80
2019-03-13T03:33:00.326Z,0.40
2019-03-13T03:35:30.144Z,0.40
2019-03-13T03:38:00.870Z,0.42
2019-03-13T03:40:30.679Z,0.42
2019-03-13T03:45:29.848Z,0.50
2019-03-13T03:48:00.636Z,0.57
2019-03-13T03:53:00.861Z,0.50
2019-03-13T03:55:31.316Z,0.60
2019-03-13T03:58:01.647Z,0.50
2019-03-13T04:00:31.619Z,0.50
2019-03-13T04:03:01.551Z,0.57
2019-03-13T04:05:31.578Z,0.50
2019-03-13T04:10:31.313Z,0.60
2019-03-13T04:13:01.816Z,0.60
2019-03-13T04:15:31.557Z,0.60
2019-03-13T04:18:01.587Z,0.70
2019-03-13T04:20:31.375Z,0.70
2019-03-13T04:23:01.327Z,0.80
2019-03-13T04:25:36.476Z,0.60
2019-03-13T04:28:07.435Z,0.72
2019-03-13T04:30:37.599Z,0.68
2019-03-13T04:33:07.690Z,0.50
2019-03-13T04:35:37.593Z,0.70
2019-03-13T04:40:36.660Z,0.50
2019-03-13T04:43:06.445Z,0.62
2019-03-13T04:45:36.592Z,0.42
2019-03-13T04:50:35.807Z,0.50
2019-03-13T04:53:05.682Z,0.60
2019-03-13T04:58:04.842Z,0.60
2019-03-13T05:00:34.705Z,0.65
2019-03-13T05:03:04.986Z,0.78
2019-03-13T05:05:47.188Z,0.70
2019-03-13T05:08:51.615Z,0.80
2019-03-13T05:13:50.866Z,0.82
2019-03-13T05:16:21.502Z,0.90
2019-03-13T05:18:51.327Z,0.70
2019-03-13T05:21:21.476Z,1.07
2019-03-13T05:23:51.166Z,0.90
2019-03-13T05:26:21.933Z,0.98
2019-03-13T05:28:54.571Z,0.70
2019-03-13T05:33:54.482Z,0.80
2019-03-13T05:36:24.311Z,1.00
2019-03-13T05:38:56.314Z,1.22
2019-03-13T05:41:26.566Z,1.00
2019-03-13T05:48:55.105Z,0.98
2019-03-13T05:51:24.993Z,1.10
2019-03-13T05:53:57.515Z,0.70
2019-03-13T05:58:57.514Z,1.10
2019-03-13T06:01:27.549Z,0.90
2019-03-13T06:03:57.332Z,0.98
2019-03-13T06:06:27.314Z,1.00
2019-03-13T06:08:57.076Z,0.70
2019-03-13T06:11:27.505Z,0.90
2019-03-13T06:16:27.715Z,0.98
2019-03-13T06:18:58.510Z,0.90
2019-03-13T06:21:29.170Z,0.90
2019-03-13T06:23:59.527Z,0.88
2019-03-13T06:26:30.527Z,0.80
2019-03-13T06:29:00.859Z,0.80
2019-03-13T06:31:30.905Z,0.78
2019-03-13T06:34:00.837Z,0.80
2019-03-13T06:36:30.813Z,0.80
2019-03-13T06:39:00.997Z,0.75
2019-03-13T06:41:32.675Z,0.70
2019-03-13T06:46:31.676Z,0.88
2019-03-13T06:51:30.787Z,0.60
2019-03-13T06:54:00.946Z,1.20
2019-03-13T06:56:30.917Z,0.93
2019-03-13T06:59:21.987Z,1.87
2019-03-13T07:02:10.753Z,1.85
2019-03-13T07:04:50.867Z,0.80
2019-03-13T07:07:34.053Z,0.68
2019-03-13T07:10:24.110Z,0.50
2019-03-13T07:13:08.322Z,0.60
2019-03-13T07:15:46.867Z,0.50
2019-03-13T07:18:32.962Z,0.72
2019-03-13T07:21:29.325Z,0.60
2019-03-13T07:24:11.337Z,0.62
2019-03-13T07:31:19.339Z,0.65
2019-03-13T07:34:45.572Z,0.62
2019-03-13T07:37:51.328Z,0.70
2019-03-13T07:41:10.808Z,0.50
2019-03-13T07:44:37.149Z,0.50
2019-03-13T07:47:37.731Z,0.88
2019-03-13T07:53:51.302Z,0.60
2019-03-13T07:56:56.636Z,0.62
2019-03-13T08:05:27.479Z,0.53
2019-03-13T08:08:26.893Z,0.57
2019-03-13T08:11:22.212Z,0.60
2019-03-13T08:14:11.609Z,0.55
2019-03-13T08:17:01.141Z,0.50
2019-03-13T08:19:49.776Z,0.70
2019-03-13T08:22:34.633Z,0.60
2019-03-13T08:28:17.442Z,0.60
2019-03-13T08:31:05.824Z,0.70
2019-03-13T08:34:09.323Z,0.50
2019-03-13T08:36:57.849Z,0.70
2019-03-13T08:39:46.300Z,0.60
2019-03-13T08:42:51.960Z,0.53
2019-03-13T08:45:48.733Z,0.60
2019-03-13T08:48:50.747Z,0.60
2019-03-13T08:51:36.353Z,0.62
2019-03-13T08:54:24.948Z,0.60
2019-03-13T08:57:07.145Z,0.60
2019-03-13T08:59:56.551Z,0.57
2019-03-13T09:03:02.175Z,0.70
2019-03-13T09:05:54.317Z,0.60
2019-03-13T09:08:43.962Z,0.60
2019-03-13T09:11:32.589Z,0.50
2019-03-13T09:20:35.250Z,0.82
2019-03-13T09:23:18.773Z,0.72
2019-03-13T09:26:17.552Z,0.60
2019-03-13T09:34:48.187Z,0.68
2019-03-13T09:37:43.681Z,0.80
2019-03-13T09:40:32.510Z,0.80
2019-03-13T09:43:37.137Z,0.60
2019-03-13T09:46:26.935Z,0.90
2019-03-13T09:49:28.566Z,0.80
2019-03-13T09:52:19.308Z,0.60
2019-03-13T09:58:02.336Z,0.60
2019-03-13T10:00:47.785Z,0.68
2019-03-13T10:03:39.719Z,0.60
2019-03-13T10:06:23.895Z,0.80
2019-03-13T10:09:13.710Z,0.68
2019-03-13T10:12:03.441Z,0.60
2019-03-13T10:14:56.938Z,0.70
2019-03-13T10:17:37.514Z,0.70
2019-03-13T10:20:27.041Z,0.50
2019-03-13T10:23:16.525Z,0.90
2019-03-13T10:26:03.637Z,1.00
2019-03-13T10:28:53.193Z,1.00
2019-03-13T10:31:47.682Z,0.62
2019-03-13T10:34:28.547Z,0.82
2019-03-13T10:39:57.925Z,0.80
2019-03-13T10:42:47.048Z,0.65
2019-03-13T10:45:35.995Z,1.30
2019-03-13T10:48:11.676Z,0.82
2019-03-13T10:50:59.856Z,0.70
2019-03-13T10:53:49.148Z,0.60
2019-03-13T10:56:38.873Z,0.60
2019-03-13T10:59:25.577Z,0.80
2019-03-13T11:02:26.819Z,0.62
2019-03-13T11:05:17.595Z,0.65
2019-03-13T11:08:20.561Z,0.85
2019-03-13T11:14:18.811Z,0.72
2019-03-13T11:17:19.522Z,0.85
2019-03-13T11:23:16.311Z,0.90
2019-03-13T11:26:01.231Z,1.00
2019-03-13T11:28:48.846Z,0.82
2019-03-13T11:31:37.464Z,0.85
2019-03-13T11:34:18.722Z,1.10
2019-03-13T11:37:07.132Z,1.00
2019-03-13T11:39:51.744Z,1.05
2019-03-13T11:45:23.898Z,0.72
2019-03-13T11:48:19.107Z,1.07
2019-03-13T11:51:17.641Z,1.10
2019-03-13T11:54:07.026Z,0.90
2019-03-13T11:56:57.324Z,1.17
2019-03-13T11:59:49.560Z,1.00
2019-03-13T12:02:44.571Z,1.20
2019-03-13T12:05:41.322Z,0.75
2019-03-13T12:08:49.686Z,1.45
2019-03-13T12:11:57.394Z,0.85
2019-03-13T12:14:53.320Z,0.85
2019-03-13T12:17:33.323Z,0.80
2019-03-13T12:20:27.150Z,1.10
2019-03-13T12:23:13.678Z,1.05
2019-03-13T12:26:03.448Z,1.07
2019-03-13T12:31:44.424Z,1.20
2019-03-13T12:34:34.358Z,1.17
2019-03-13T12:37:21.325Z,1.42
2019-03-13T12:40:25.979Z,1.52
2019-03-13T12:43:15.853Z,1.10
2019-03-13T12:45:54.597Z,1.00
2019-03-13T12:48:41.538Z,1.10
2019-03-13T12:51:32.766Z,0.93
2019-03-13T12:54:20.731Z,1.37
2019-03-13T12:57:15.977Z,1.10
2019-03-13T13:00:05.341Z,1.10
2019-03-13T13:02:56.630Z,1.02
2019-03-13T13:08:34.649Z,1.20
2019-03-13T13:11:23.327Z,1.12
2019-03-13T13:14:15.616Z,1.20
2019-03-13T13:17:04.573Z,1.15
2019-03-13T13:22:04.623Z,3.70
2019-03-13T13:24:35.474Z,1.42
2019-03-13T13:29:39.814Z,1.40
2019-03-13T13:32:11.710Z,1.50
2019-03-13T13:34:43.483Z,1.52
2019-03-13T13:37:14.145Z,1.32
2019-03-13T13:39:45.183Z,1.30
2019-03-13T13:42:15.028Z,3.62
2019-03-13T13:44:45.970Z,1.15
2019-03-13T13:47:17.028Z,1.02
2019-03-13T13:49:59.137Z,1.45
2019-03-13T13:52:20.949Z,1.50
2019-03-13T13:54:51.154Z,1.20
2019-03-13T13:57:23.037Z,1.37
2019-03-13T13:59:53.942Z,1.47
2019-03-13T14:02:25.321Z,1.30
2019-03-13T14:04:56.574Z,1.57
2019-03-13T14:07:27.159Z,1.15
2019-03-13T14:10:02.779Z,1.52
2019-03-13T14:12:34.381Z,1.07
2019-03-13T14:15:05.311Z,1.72
2019-03-13T14:17:36.754Z,1.37
2019-03-13T14:20:08.334Z,1.70
2019-03-13T14:22:40.821Z,1.77
2019-03-13T14:25:11.956Z,1.25
2019-03-13T14:30:46.878Z,1.47
2019-03-13T14:34:22.022Z,1.70
2019-03-13T14:46:39.214Z,1.25
2019-03-13T14:50:25.256Z,0.93
2019-03-13T14:58:03.776Z,1.10
2019-03-13T15:50:48.707Z,1.30
2019-03-13T16:21:10.148Z,1.30
2019-03-13T16:24:31.254Z,1.25
2019-03-13T16:33:07.552Z,1.40
2019-03-13T16:36:20.331Z,2.00
2019-03-13T16:42:01.744Z,1.40
2019-03-13T16:45:53.563Z,1.32
2019-03-13T17:21:15.230Z,1.37
2019-03-13T17:29:37.308Z,1.70
2019-03-13T17:55:28.074Z,1.30
2019-03-13T18:19:19.721Z,1.52
2019-03-13T18:22:19.653Z,2.40
2019-03-13T18:25:22.476Z,1.52
2019-03-13T18:28:27.188Z,2.30
2019-03-13T18:31:13.793Z,1.50
2019-03-13T18:33:50.249Z,1.75
2019-03-13T18:49:40.903Z,1.40
2019-03-13T19:02:55.275Z,1.82
2019-03-13T19:06:28.709Z,1.35
2019-03-13T19:10:04.884Z,1.70
2019-03-13T19:13:30.836Z,1.90
2019-03-13T19:16:38.076Z,1.60
2019-03-13T19:19:45.504Z,1.60
2019-03-13T19:37:42.104Z,1.70
2019-03-13T19:45:15.375Z,1.70
2019-03-13T19:49:57.788Z,1.32
2019-03-13T20:36:12.757Z,1.70
2019-03-13T20:40:31.653Z,1.22
2019-03-13T20:43:34.059Z,1.40
2019-03-13T20:47:05.647Z,1.15
2019-03-13T20:49:57.575Z,1.50
2019-03-13T20:53:29.781Z,1.27
2019-03-13T20:56:44.127Z,1.30
2019-03-13T21:00:19.465Z,1.15
2019-03-13T21:07:29.408Z,1.10
2019-03-13T21:09:59.719Z,0.80
2019-03-13T21:12:29.601Z,1.98
2019-03-13T21:17:28.480Z,1.47
2019-03-13T21:19:58.340Z,1.00
2019-03-13T21:22:28.058Z,0.90
2019-03-13T21:24:57.845Z,0.80
2019-03-13T21:27:29.722Z,0.90
2019-03-13T21:29:59.349Z,0.95
2019-03-13T21:32:28.943Z,0.90
2019-03-13T21:34:59.565Z,0.90
2019-03-13T21:39:58.612Z,1.00
2019-03-13T21:44:57.581Z,1.20
2019-03-13T21:49:56.714Z,1.20
2019-03-13T21:52:26.575Z,1.32
2019-03-13T21:54:56.192Z,1.32
2019-03-13T21:57:26.113Z,1.57
2019-03-13T21:59:55.845Z,1.47
2019-03-13T22:02:32.908Z,1.60
2019-03-13T22:07:35.867Z,2.12
2019-03-13T22:10:06.846Z,2.00
2019-03-13T22:12:36.566Z,1.50
2019-03-13T22:15:07.537Z,1.50
2019-03-13T22:17:37.316Z,1.60
2019-03-13T22:20:07.733Z,1.27
2019-03-13T22:22:37.183Z,1.70
2019-03-13T22:25:07.768Z,1.70
2019-03-13T22:27:38.604Z,1.90
2019-03-13T22:32:40.661Z,2.00
2019-03-13T22:35:10.466Z,2.05
2019-03-13T22:37:40.120Z,2.62
2019-03-13T22:40:10.794Z,2.60
2019-03-13T22:42:40.822Z,2.92
2019-03-13T22:45:11.837Z,2.47
2019-03-13T22:47:43.020Z,2.50
2019-03-13T22:52:47.516Z,1.90
2019-03-13T22:55:17.056Z,2.20
2019-03-13T22:57:46.758Z,1.50
2019-03-13T23:03:31.843Z,2.37
2019-03-13T23:06:01.598Z,2.70
2019-03-13T23:08:31.497Z,2.70
2019-03-13T23:13:30.526Z,1.50
2019-03-13T23:16:00.342Z,1.95
2019-03-13T23:18:29.836Z,2.00
2019-03-13T23:20:59.565Z,2.20
2019-03-13T23:23:29.069Z,1.90
2019-03-13T23:25:58.868Z,2.17
2019-03-13T23:28:28.681Z,2.02
2019-03-13T23:30:58.094Z,1.60
2019-03-13T23:33:27.911Z,1.82
2019-03-13T23:35:57.567Z,1.42
2019-03-13T23:38:27.141Z,1.60
2019-03-13T23:40:57.106Z,1.60
2019-03-13T23:43:26.821Z,1.45
2019-03-13T23:45:56.588Z,1.50
2019-03-13T23:50:55.671Z,1.10
2019-03-13T23:55:55.324Z,1.60
2019-03-13T23:58:25.320Z,1.32
